Time;durP1;ratioP1;P1;durP2;ratioP2;P2;SDS_P1;SDS_P2;PMS_P1;PMS_P2;Temp;Humidity;BMP_temperature;BMP_pressure;BME280_temperature;BME280_humidity;BME280_pressure;Samples;Min_cycle;Max_cycle;Signal;HPM_P1;HPM_P2
2022/11/01 00:01:08;;;;;;;;;1.00;1.00;;;;;17.12;100.00;100395.41;4955835;28;44825;-82
2022/11/01 00:03:34;;;;;;;;;1.50;1.50;;;;;17.06;100.00;100396.41;4961062;28;45742;-82
2022/11/01 00:06:02;;;;;;;;;1.50;1.50;;;;;17.06;100.00;100417.03;4974738;28;45199;-83
2022/11/01 00:08:28;;;;;;;;;1.25;1.25;;;;;17.01;100.00;100409.06;4975331;28;44933;-83
2022/11/01 00:11:01;;;;;;;;;1.00;1.00;;;;;16.96;100.00;100414.50;4958104;28;45492;-82
2022/11/01 00:13:27;;;;;;;;;1.00;0.00;;;;;16.90;100.00;100430.72;4975273;28;45417;-82
2022/11/01 00:15:52;;;;;;;;;1.25;1.25;;;;;16.86;100.00;100437.03;4957750;28;46890;-83
2022/11/01 00:18:18;;;;;;;;;1.25;1.25;;;;;16.81;100.00;100438.94;4958940;28;44944;-83
2022/11/01 00:20:44;;;;;;;;;0.50;0.50;;;;;16.74;100.00;100431.84;4959369;28;45470;-83
2022/11/01 00:23:09;;;;;;;;;1.00;0.00;;;;;16.73;100.00;100443.53;4959514;28;44879;-83
2022/11/01 00:25:35;;;;;;;;;3.25;1.50;;;;;16.72;100.00;100455.16;4958927;28;48045;-82
2022/11/01 00:28:01;;;;;;;;;2.75;1.75;;;;;16.67;100.00;100449.88;4958326;28;45472;-82
2022/11/01 00:30:28;;;;;;;;;0.75;0.50;;;;;16.67;100.00;100452.56;4976554;28;45420;-82
2022/11/01 00:32:56;;;;;;;;;0.00;0.00;;;;;16.68;100.00;100461.50;4958644;28;45342;-84
2022/11/01 00:35:24;;;;;;;;;1.00;1.00;;;;;16.71;100.00;100470.38;4975445;28;45399;-83
2022/11/01 00:37:51;;;;;;;;;1.00;1.00;;;;;16.68;100.00;100469.53;4976027;28;45445;-83
2022/11/01 00:40:18;;;;;;;;;0.75;0.75;;;;;16.64;100.00;100484.81;4975409;28;45319;-83
2022/11/01 00:42:47;;;;;;;;;0.50;0.50;;;;;16.68;100.00;100491.03;4975198;28;45329;-83
2022/11/01 00:45:12;;;;;;;;;0.00;0.00;;;;;16.68;100.00;100491.03;4956828;28;45362;-83
2022/11/01 00:47:41;;;;;;;;;0.00;0.00;;;;;16.68;100.00;100496.38;4957678;28;45599;-82
2022/11/01 00:50:07;;;;;;;;;0.00;0.00;;;;;16.65;100.00;100491.97;4975084;28;44796;-83
2022/11/01 00:52:34;;;;;;;;;0.00;0.00;;;;;16.62;100.00;100499.16;4973256;28;45333;-83
2022/11/01 00:55:00;;;;;;;;;0.00;0.00;;;;;16.61;100.00;100500.97;4973119;28;45480;-82
2022/11/01 00:57:26;;;;;;;;;0.00;0.00;;;;;16.66;100.00;100512.53;4973908;28;45085;-82
2022/11/01 00:59:56;;;;;;;;;2.00;0.25;;;;;16.62;100.00;100521.53;4956676;28;45487;-82
2022/11/01 01:02:22;;;;;;;;;1.75;1.00;;;;;16.54;100.00;100521.66;4974202;28;45374;-82
2022/11/01 01:04:49;;;;;;;;;0.00;0.00;;;;;16.51;100.00;100532.44;4955328;28;46298;-82
2022/11/01 01:10:37;;;;;;;;;1.00;1.00;;;;;16.38;100.00;100539.78;4973958;28;45373;-82
2022/11/01 01:13:04;;;;;;;;;1.50;0.50;;;;;16.35;100.00;100534.44;4972358;28;45741;-82
2022/11/01 01:15:31;;;;;;;;;0.00;0.00;;;;;16.34;100.00;100547.84;4973275;28;45327;-83
2022/11/01 01:17:57;;;;;;;;;0.50;0.50;;;;;16.25;100.00;100534.56;4971637;28;45475;-83
2022/11/01 01:20:23;;;;;;;;;0.00;0.00;;;;;16.23;100.00;100555.16;4972424;28;44858;-82
2022/11/01 01:22:49;;;;;;;;;0.00;0.00;;;;;16.13;100.00;100557.94;4974690;28;45435;-83
2022/11/01 01:25:15;;;;;;;;;0.00;0.00;;;;;16.04;100.00;100558.06;4971431;28;45531;-82
2022/11/01 01:27:41;;;;;;;;;1.00;1.00;;;;;16.00;100.00;100567.06;4973061;28;45442;-82
2022/11/01 01:30:08;;;;;;;;;1.00;1.00;;;;;15.95;100.00;100574.25;4971365;28;45381;-82
2022/11/01 01:32:40;;;;;;;;;0.00;0.00;;;;;15.82;100.00;100569.94;4971355;28;45352;-82
2022/11/01 01:35:07;;;;;;;;;0.25;0.25;;;;;15.80;100.00;100592.28;4968725;28;45716;-84
2022/11/01 01:37:36;;;;;;;;;0.00;0.00;;;;;15.67;100.00;100573.63;4968835;28;45337;-83
2022/11/01 01:40:07;;;;;;;;;0.75;0.75;;;;;15.65;100.00;100588.81;4970554;28;44795;-82
2022/11/01 01:42:36;;;;;;;;;0.50;0.50;;;;;15.64;100.00;100596.00;4968920;28;45595;-83
2022/11/01 01:45:06;;;;;;;;;0.00;0.00;;;;;15.57;100.00;100604.97;4968777;28;47307;-83
2022/11/01 01:47:37;;;;;;;;;0.00;0.00;;;;;15.52;100.00;100598.78;4968561;28;45432;-84
2022/11/01 01:50:12;;;;;;;;;1.25;0.00;;;;;15.37;100.00;100592.66;4970506;28;45229;-83
2022/11/01 01:52:47;;;;;;;;;4.50;1.25;;;;;15.41;100.00;100609.56;4970738;28;45794;-83
2022/11/01 01:55:29;;;;;;;;;0.00;0.00;;;;;15.35;100.00;100626.59;4969201;28;45614;-83
2022/11/01 01:57:56;;;;;;;;;0.50;0.50;;;;;15.29;100.00;100615.94;4971177;28;45365;-83
2022/11/01 02:00:22;;;;;;;;;0.00;0.00;;;;;15.24;100.00;100617.75;4974581;28;45244;-83
2022/11/01 02:06:39;;;;;;;;;0.00;0.00;;;;;15.07;100.00;100620.53;4992550;28;45996;-83
2022/11/01 02:09:07;;;;;;;;;0.00;0.00;;;;;15.07;100.00;100631.25;4977369;28;45360;-82
2022/11/01 02:11:34;;;;;;;;;2.50;0.50;;;;;15.04;100.00;100644.66;4976683;28;45403;-83
2022/11/01 02:14:00;;;;;;;;;0.00;0.00;;;;;14.92;100.00;100636.69;4959813;28;45716;-83
2022/11/01 02:16:45;;;;;;;;;0.00;0.00;;;;;14.94;100.00;100650.97;4992907;28;46611;-83
2022/11/01 02:19:32;;;;;;;;;0.00;0.00;;;;;14.92;100.00;100655.44;4976123;28;44751;-83
2022/11/01 02:22:28;;;;;;;;;0.50;0.00;;;;;14.91;100.00;100664.38;4976266;28;45282;-82
2022/11/01 02:24:53;;;;;;;;;1.25;0.00;;;;;14.86;100.00;100664.38;4993583;28;45481;-83
2022/11/01 02:27:48;;;;;;;;;1.25;1.25;;;;;14.86;100.00;100659.03;4975905;28;45496;-82
2022/11/01 02:30:17;;;;;;;;;0.00;0.00;;;;;14.82;100.00;100673.31;4907767;28;44767;-83
2022/11/01 02:32:54;;;;;;;;;0.75;0.75;;;;;14.77;100.00;100664.44;4993373;28;45530;-83
2022/11/01 02:35:29;;;;;;;;;2.00;2.00;;;;;14.67;100.00;100662.72;4965744;28;45556;-82
2022/11/01 02:38:18;;;;;;;;;1.00;1.00;;;;;14.68;100.00;100669.81;4955860;28;45368;-83
2022/11/01 02:40:51;;;;;;;;;2.00;1.00;;;;;14.59;100.00;100666.28;4973923;28;45289;-83
2022/11/01 02:43:28;;;;;;;;;1.67;0.67;;;;;14.55;100.00;100669.84;4973000;28;44785;-82
2022/11/01 02:45:56;;;;;;;;;2.00;0.00;;;;;14.48;100.00;100667.19;4971882;28;44761;-81
2022/11/01 02:48:24;;;;;;;;;0.33;0.00;;;;;14.51;100.00;100683.25;4969696;28;45154;-82
2022/11/01 02:50:55;;;;;;;;;2.00;0.00;;;;;14.47;100.00;100682.34;4952140;28;45558;-82
2022/11/01 02:53:21;;;;;;;;;0.00;0.00;;;;;14.47;100.00;100695.72;4970053;28;45438;-82
2022/11/01 02:55:47;;;;;;;;;2.00;1.00;;;;;14.47;100.00;100692.19;4953028;28;45468;-82
2022/11/01 02:58:23;;;;;;;;;2.67;1.00;;;;;14.45;100.00;100702.00;4968991;28;45233;-82
2022/11/01 03:00:50;;;;;;;;;1.67;0.00;;;;;14.39;100.00;100695.75;4969649;28;45437;-82
2022/11/01 03:03:29;;;;;;;;;3.00;1.00;;;;;14.41;100.00;100717.16;4986342;28;45490;-83
2022/11/01 03:06:04;;;;;;;;;1.25;0.75;;;;;14.38;100.00;100715.38;4968772;28;44854;-82
2022/11/01 03:11:59;;;;;;;;;0.00;0.00;;;;;14.29;100.00;100706.47;4970624;28;45523;-82
2022/11/01 03:14:41;;;;;;;;;1.33;0.00;;;;;14.34;100.00;100721.63;4970526;28;44799;-81
2022/11/01 03:17:47;;;;;;;;;0.00;0.00;;;;;14.29;100.00;100727.88;4972562;28;45232;-82
2022/11/01 03:20:58;;;;;;;;;1.00;0.00;;;;;14.24;100.00;100732.34;4975640;28;47801;-82
2022/11/01 03:23:50;;;;;;;;;1.00;1.00;;;;;14.21;100.00;100728.78;4975854;28;44863;-83
2022/11/01 03:26:25;;;;;;;;;1.25;1.00;;;;;14.14;100.00;100721.66;4975487;28;45496;-83
2022/11/01 03:28:57;;;;;;;;;0.00;0.00;;;;;14.14;100.00;100736.81;4960307;28;45473;-83
2022/11/01 03:31:28;;;;;;;;;1.00;1.00;;;;;14.02;100.00;100724.34;4976297;28;46505;-83
2022/11/01 03:34:00;;;;;;;;;1.00;1.00;;;;;14.05;100.00;100739.50;4974611;28;44716;-83
2022/11/01 03:36:38;;;;;;;;;1.25;0.75;;;;;13.99;100.00;100743.03;4975281;28;44871;-82
2022/11/01 03:39:14;;;;;;;;;2.75;2.00;;;;;13.91;100.00;100739.47;4975675;28;44765;-82
2022/11/01 03:41:48;;;;;;;;;1.67;1.67;;;;;13.90;100.00;100748.41;4974296;28;45316;-82
2022/11/01 03:44:17;;;;;;;;;2.75;1.50;;;;;13.92;100.00;100757.31;4975273;28;45843;-82
2022/11/01 03:46:48;;;;;;;;;2.00;2.00;;;;;13.89;100.00;100773.34;4975694;28;45376;-82
2022/11/01 03:49:18;;;;;;;;;0.00;0.00;;;;;13.88;100.00;100779.59;4975340;28;45305;-82
2022/11/01 03:51:44;;;;;;;;;3.75;0.75;;;;;13.82;100.00;100777.81;4976278;28;45246;-83
2022/11/01 03:54:10;;;;;;;;;0.00;0.00;;;;;13.83;100.00;100786.72;4975825;28;44801;-83
2022/11/01 03:56:47;;;;;;;;;2.75;1.00;;;;;13.81;100.00;100797.38;4975417;28;44786;-83
2022/11/01 03:59:13;;;;;;;;;1.25;1.00;;;;;13.76;100.00;100781.34;4976679;28;44730;-83
2022/11/01 04:01:39;;;;;;;;;1.00;1.00;;;;;13.74;100.00;100780.47;4976306;28;45380;-83
2022/11/01 04:04:05;;;;;;;;;1.00;1.00;;;;;13.75;100.00;100790.25;4975382;28;45381;-82
2022/11/01 04:06:30;;;;;;;;;2.00;1.00;;;;;13.71;100.00;100787.56;4974768;28;45385;-82
2022/11/01 04:08:56;;;;;;;;;0.50;0.50;;;;;13.69;100.00;100802.72;4973511;28;45034;-82
2022/11/01 04:11:25;;;;;;;;;2.00;1.50;;;;;13.68;100.00;100815.19;4973361;28;46456;-83
2022/11/01 04:13:50;;;;;;;;;3.00;1.00;;;;;13.69;100.00;100824.97;4972626;28;45412;-83
2022/11/01 04:21:44;;;;;;;;;3.75;0.75;;;;;13.55;100.00;100832.06;4990784;28;45448;-83
2022/11/01 04:24:09;;;;;;;;;0.75;0.75;;;;;13.52;100.00;100834.75;4990425;28;45578;-83
2022/11/01 04:26:38;;;;;;;;;0.00;0.00;;;;;13.55;100.00;100840.09;4962081;28;45548;-83
2022/11/01 04:29:04;;;;;;;;;0.00;0.00;;;;;13.58;100.00;100849.00;4973100;28;45334;-82
2022/11/01 04:34:54;;;;;;;;;4.25;1.00;;;;;13.53;100.00;100861.47;4975153;28;45282;-82
2022/11/01 04:37:20;;;;;;;;;3.00;2.00;;;;;13.47;100.00;100850.78;4957473;28;45385;-83
2022/11/01 04:39:46;;;;;;;;;1.33;0.67;;;;;13.43;100.00;100856.06;4975311;28;45362;-82
2022/11/01 04:42:11;;;;;;;;;1.00;1.00;;;;;13.48;100.00;100879.25;4973457;28;45614;-82
2022/11/01 04:44:39;;;;;;;;;1.50;1.00;;;;;13.44;100.00;100872.13;4973432;28;45339;-82
2022/11/01 04:47:05;;;;;;;;;2.00;1.00;;;;;13.42;100.00;100875.69;4973790;28;44775;-82
2022/11/01 04:49:32;;;;;;;;;1.50;1.00;;;;;13.47;100.00;100884.59;4974817;28;45361;-82
2022/11/01 04:52:05;;;;;;;;;2.25;1.00;;;;;13.45;100.00;100892.59;4957314;28;46715;-83
2022/11/01 04:54:32;;;;;;;;;3.33;2.67;;;;;13.33;100.00;100872.06;4956934;28;45001;-82
2022/11/01 04:56:58;;;;;;;;;4.00;2.00;;;;;13.40;100.00;100892.56;4957798;28;45356;-84
2022/11/01 04:59:23;;;;;;;;;1.75;1.75;;;;;13.36;100.00;100896.13;4976025;28;45405;-83
2022/11/01 05:01:49;;;;;;;;;1.67;1.00;;;;;13.30;100.00;100887.19;4957095;28;47189;-82
2022/11/01 05:04:15;;;;;;;;;1.00;1.00;;;;;13.32;100.00;100893.44;4955654;28;45259;-83
2022/11/01 05:06:40;;;;;;;;;3.00;1.00;;;;;13.33;100.00;100901.47;4957788;28;44787;-82
2022/11/01 05:09:06;;;;;;;;;2.00;0.67;;;;;13.32;100.00;100906.78;4974483;28;45450;-82
2022/11/01 05:11:31;;;;;;;;;2.67;2.67;;;;;13.26;100.00;100904.03;4956846;28;45256;-82
2022/11/01 05:13:57;;;;;;;;;2.33;1.00;;;;;13.27;100.00;100906.75;4957988;28;45490;-83
2022/11/01 05:16:25;;;;;;;;;0.67;0.67;;;;;13.27;100.00;100916.50;4975724;28;44813;-83
2022/11/01 05:18:51;;;;;;;;;2.33;1.33;;;;;13.18;100.00;100914.69;4958401;28;45706;-82
2022/11/01 05:21:18;;;;;;;;;2.00;0.00;;;;;13.25;100.00;100919.19;4957379;28;47501;-83
2022/11/01 05:23:50;;;;;;;;;0.00;0.00;;;;;13.26;100.00;100925.41;4957090;28;44740;-83
2022/11/01 05:26:16;;;;;;;;;1.67;1.00;;;;;13.24;100.00;100927.19;4974094;28;45480;-83
2022/11/01 05:28:41;;;;;;;;;2.00;2.00;;;;;13.20;100.00;100926.25;4971617;28;45650;-83
2022/11/01 05:31:07;;;;;;;;;1.33;1.00;;;;;13.19;100.00;100930.72;4952154;28;47719;-83
2022/11/01 05:33:32;;;;;;;;;0.75;0.75;;;;;13.17;100.00;100929.81;4953313;28;45318;-83
2022/11/01 05:36:04;;;;;;;;;4.00;4.00;;;;;13.15;100.00;100938.72;4971116;28;45396;-83
2022/11/01 05:38:30;;;;;;;;;2.75;1.00;;;;;13.10;100.00;100935.97;4953302;28;45404;-83
2022/11/01 05:40:56;;;;;;;;;2.75;1.00;;;;;12.97;100.00;100929.69;4953875;28;46875;-83
2022/11/01 05:43:22;;;;;;;;;6.00;2.00;;;;;13.00;100.00;100940.38;4952978;28;45399;-81
2022/11/01 05:45:47;;;;;;;;;2.50;2.25;;;;;12.98;100.00;100941.25;4954841;28;45725;-82
2022/11/01 05:48:13;;;;;;;;;3.67;1.67;;;;;12.95;100.00;100941.25;4970911;28;45227;-82
2022/11/01 05:50:38;;;;;;;;;1.00;1.00;;;;;12.95;100.00;100952.81;4970672;28;45337;-83
2022/11/01 05:53:08;;;;;;;;;4.00;3.00;;;;;12.96;100.00;100954.56;4953591;28;45386;-82
2022/11/01 05:55:35;;;;;;;;;1.33;1.00;;;;;12.93;100.00;100954.56;4971096;28;45591;-82
2022/11/01 05:58:01;;;;;;;;;1.75;1.00;;;;;12.94;100.00;100958.13;4952416;28;45517;-82
2022/11/01 06:00:28;;;;;;;;;1.33;1.00;;;;;12.94;100.00;100950.13;4956046;28;47291;-82
2022/11/01 06:02:59;;;;;;;;;1.00;1.00;;;;;12.93;100.00;100957.22;4973138;28;45419;-83
2022/11/01 06:05:29;;;;;;;;;1.00;1.00;;;;;12.87;100.00;100957.19;4972572;28;45454;-83
2022/11/01 06:08:03;;;;;;;;;5.00;2.00;;;;;12.92;100.00;100970.56;4956302;28;44813;-83
2022/11/01 06:10:29;;;;;;;;;1.00;1.00;;;;;12.81;100.00;100957.13;4974077;28;45249;-82
2022/11/01 06:12:59;;;;;;;;;2.50;2.50;;;;;12.81;100.00;100966.03;4956112;28;45372;-82
2022/11/01 06:15:24;;;;;;;;;1.00;1.00;;;;;12.81;100.00;100959.81;4974090;28;45547;-83
2022/11/01 06:18:01;;;;;;;;;1.00;1.00;;;;;12.75;100.00;100947.28;4956562;28;45597;-84
2022/11/01 06:20:30;;;;;;;;;3.75;1.50;;;;;12.78;100.00;100965.09;4955334;28;46885;-83
2022/11/01 06:22:59;;;;;;;;;4.25;1.00;;;;;12.76;100.00;100983.75;4955477;28;45343;-83
2022/11/01 06:25:26;;;;;;;;;3.67;2.00;;;;;12.73;100.00;100957.06;4956262;28;44921;-83
2022/11/01 06:27:53;;;;;;;;;3.00;2.33;;;;;12.70;100.00;100957.03;4956118;28;45715;-81
2022/11/01 06:30:19;;;;;;;;;1.33;0.00;;;;;12.67;100.00;100972.13;4955011;28;45481;-81
2022/11/01 06:32:45;;;;;;;;;1.33;1.33;;;;;12.73;100.00;100972.19;4972656;28;45247;-82
2022/11/01 06:38:32;;;;;;;;;4.00;3.00;;;;;12.68;100.00;100979.25;4973603;28;45357;-82
2022/11/01 06:41:01;;;;;;;;;4.67;1.67;;;;;12.68;100.00;100977.47;4972737;28;45859;-82
2022/11/01 06:43:30;;;;;;;;;2.67;2.67;;;;;12.67;100.00;100972.13;4955172;28;45370;-82
2022/11/01 06:45:59;;;;;;;;;1.00;1.00;;;;;12.64;100.00;100972.09;4972775;28;45398;-82
2022/11/01 06:48:25;;;;;;;;;3.00;1.00;;;;;12.72;100.00;100987.28;4972306;28;45260;-82
2022/11/01 06:50:52;;;;;;;;;5.00;2.00;;;;;12.72;100.00;100991.75;4954531;28;45406;-83
2022/11/01 06:53:18;;;;;;;;;3.67;3.00;;;;;12.68;100.00;100984.59;4974639;28;45765;-83
2022/11/01 06:55:44;;;;;;;;;1.33;0.00;;;;;12.71;100.00;101001.53;4975991;28;44790;-83
2022/11/01 06:58:09;;;;;;;;;2.33;1.33;;;;;12.68;100.00;100992.59;4959619;28;44929;-83
2022/11/01 07:00:35;;;;;;;;;1.00;1.00;;;;;12.75;100.00;101014.03;4959138;28;46198;-83
2022/11/01 07:03:06;;;;;;;;;1.67;1.67;;;;;12.76;100.00;101007.78;4958749;28;45438;-83
2022/11/01 07:05:36;;;;;;;;;3.33;2.33;;;;;12.78;100.00;101011.34;4954974;28;44884;-83
2022/11/01 07:08:03;;;;;;;;;0.00;0.00;;;;;12.83;100.00;101000.75;4956242;28;44788;-83
2022/11/01 07:10:30;;;;;;;;;2.00;2.00;;;;;12.88;100.00;101007.00;4957528;28;45300;-83
2022/11/01 07:13:04;;;;;;;;;3.00;3.00;;;;;12.84;100.00;101009.66;4955814;28;44857;-83
2022/11/01 07:15:31;;;;;;;;;6.00;3.00;;;;;12.85;100.00;101006.09;4955635;28;45362;-83
2022/11/01 07:17:57;;;;;;;;;2.33;0.33;;;;;12.92;100.00;101014.16;4955931;28;44843;-82
2022/11/01 07:20:28;;;;;;;;;1.00;1.00;;;;;12.99;100.00;101034.72;4955018;28;48272;-82
2022/11/01 07:22:59;;;;;;;;;1.33;1.33;;;;;13.04;100.00;101036.53;4955241;28;45349;-81
2022/11/01 07:25:25;;;;;;;;;4.00;2.00;;;;;13.02;100.00;101028.50;4955990;28;45393;-83
2022/11/01 07:27:51;;;;;;;;;2.33;1.00;;;;;13.04;100.00;101032.06;4954087;28;45425;-83
2022/11/01 07:30:16;;;;;;;;;1.00;1.00;;;;;13.12;100.00;101034.81;4953209;28;45439;-83
2022/11/01 07:32:42;;;;;;;;;1.33;1.33;;;;;13.10;100.00;101041.91;4953998;28;45405;-83
2022/11/01 07:35:08;;;;;;;;;2.00;2.00;;;;;13.10;100.00;101039.25;4954058;28;45344;-83
2022/11/01 07:37:41;;;;;;;;;2.00;1.00;;;;;13.14;100.00;101049.94;4953997;28;45406;-83
2022/11/01 07:40:10;;;;;;;;;1.33;0.67;;;;;13.18;100.00;101046.44;4950720;28;47107;-83
2022/11/01 07:42:43;;;;;;;;;3.00;1.00;;;;;13.22;100.00;101050.03;4951325;28;45306;-83
2022/11/01 07:45:11;;;;;;;;;2.00;2.00;;;;;13.21;100.00;101046.47;4951031;28;45439;-83
2022/11/01 07:47:37;;;;;;;;;3.00;1.33;;;;;13.27;100.00;101047.38;4951852;28;45366;-83
2022/11/01 07:50:06;;;;;;;;;2.00;2.00;;;;;13.24;100.00;101045.59;4951793;28;45624;-83
2022/11/01 07:52:31;;;;;;;;;5.67;2.00;;;;;13.23;100.00;101038.47;4953028;28;45504;-83
2022/11/01 07:54:57;;;;;;;;;1.00;1.00;;;;;13.44;100.00;101058.25;4953293;28;45426;-83
2022/11/01 07:57:22;;;;;;;;;1.00;1.00;;;;;13.47;100.00;101059.16;4954148;28;45420;-82
2022/11/01 07:59:50;;;;;;;;;2.67;1.67;;;;;13.47;100.00;101058.25;4951989;28;47242;-83
2022/11/01 08:02:15;;;;;;;;;3.00;3.00;;;;;13.54;100.00;101063.66;4955746;28;44715;-83
2022/11/01 08:04:41;;;;;;;;;4.00;2.67;;;;;13.60;100.00;101082.41;4956342;28;44693;-83
2022/11/01 08:07:06;;;;;;;;;5.33;1.33;;;;;13.65;100.00;101084.22;4958069;28;44844;-82
2022/11/01 08:09:38;;;;;;;;;3.00;2.00;;;;;13.70;100.00;101088.72;4975393;28;45849;-83
2022/11/01 08:12:04;;;;;;;;;5.67;2.33;;;;;13.73;100.00;101094.06;4958610;28;44778;-83
2022/11/01 08:14:34;;;;;;;;;2.00;2.00;;;;;13.82;100.00;101098.59;4959793;28;44712;-83
2022/11/01 08:17:39;;;;;;;;;5.67;2.00;;;;;13.88;100.00;101098.63;4959428;28;45001;-82
2022/11/01 08:20:06;;;;;;;;;1.00;0.33;;;;;13.92;100.00;101102.22;4975414;28;46465;-82
2022/11/01 08:22:32;;;;;;;;;2.67;2.67;;;;;13.96;100.00;101096.00;4957465;28;45354;-82
2022/11/01 08:24:57;;;;;;;;;3.00;1.00;;;;;14.02;100.00;101096.06;4975339;28;45361;-82
2022/11/01 08:27:24;;;;;;;;;4.33;2.00;;;;;14.04;100.00;101102.31;4976118;28;45362;-83
2022/11/01 08:29:49;;;;;;;;;2.67;2.67;;;;;14.07;100.00;101088.94;4976425;28;45199;-83
2022/11/01 08:32:22;;;;;;;;;4.00;2.00;;;;;14.10;100.00;101088.97;4958792;28;45276;-82
2022/11/01 08:34:48;;;;;;;;;1.00;0.00;;;;;14.11;100.00;101090.72;4976645;28;45450;-82
2022/11/01 08:37:17;;;;;;;;;2.00;1.67;;;;;14.19;100.00;101091.66;4976764;28;44728;-83
2022/11/01 08:39:51;;;;;;;;;5.33;2.00;;;;;14.24;100.00;101090.78;4975614;28;45535;-81
2022/11/01 08:42:20;;;;;;;;;3.50;2.00;;;;;14.25;100.00;101087.25;4977083;28;44836;-83
2022/11/01 08:44:49;;;;;;;;;3.00;1.67;;;;;14.37;100.00;101095.31;4956728;28;45506;-82
2022/11/01 08:47:14;;;;;;;;;2.00;2.00;;;;;14.40;100.00;101077.50;4954407;28;44824;-82
2022/11/01 08:49:49;;;;;;;;;2.75;1.00;;;;;14.47;100.00;101078.41;4954236;28;46898;-82
2022/11/01 08:52:14;;;;;;;;;2.50;1.00;;;;;14.54;100.00;101090.94;4972469;28;44738;-83
2022/11/01 08:54:43;;;;;;;;;3.00;1.00;;;;;14.49;100.00;101065.94;4954487;28;45561;-83
2022/11/01 08:57:08;;;;;;;;;1.25;0.75;;;;;14.66;100.00;101100.78;4965286;28;45478;-83
2022/11/01 08:59:34;;;;;;;;;4.25;1.25;;;;;14.73;100.00;101102.63;4990201;28;45362;-83
2022/11/01 09:02:01;;;;;;;;;2.50;2.00;;;;;14.80;100.00;101099.06;4972949;28;44912;-84
2022/11/01 09:04:26;;;;;;;;;4.00;3.00;;;;;14.87;100.00;101101.78;4971886;28;45410;-83
2022/11/01 09:06:52;;;;;;;;;2.25;2.00;;;;;14.85;100.00;101087.47;4989180;28;45396;-83
2022/11/01 09:09:18;;;;;;;;;3.25;3.00;;;;;14.96;100.00;101094.63;4971838;28;46726;-82
2022/11/01 09:11:43;;;;;;;;;2.00;1.00;;;;;15.00;100.00;101096.41;4989811;28;44778;-83
2022/11/01 09:14:17;;;;;;;;;1.75;1.00;;;;;15.06;100.00;101106.25;4972233;28;44792;-83
2022/11/01 09:16:45;;;;;;;;;2.25;2.00;;;;;15.08;100.00;101099.09;4973626;28;45548;-83
2022/11/01 09:19:10;;;;;;;;;3.75;2.00;;;;;15.10;100.00;101093.75;4972283;28;45248;-83
2022/11/01 09:21:36;;;;;;;;;5.00;2.00;;;;;15.25;100.00;101107.19;4993368;28;45248;-83
2022/11/01 09:24:02;;;;;;;;;3.50;0.50;;;;;15.35;100.00;101103.59;4994384;28;44799;-82
2022/11/01 09:26:28;;;;;;;;;3.00;1.75;;;;;15.42;100.00;101107.16;4976599;28;44940;-83
2022/11/01 09:28:54;;;;;;;;;5.75;3.50;;;;;15.44;100.00;101099.13;4975680;28;45153;-83
2022/11/01 09:31:19;;;;;;;;;1.75;1.75;;;;;15.48;100.00;101099.13;4993092;28;45392;-82
2022/11/01 09:33:45;;;;;;;;;1.50;1.00;;;;;15.47;100.00;101107.16;4992128;28;45372;-82
2022/11/01 09:36:10;;;;;;;;;2.50;1.00;;;;;15.51;100.00;101103.59;4992588;28;45371;-82
2022/11/01 09:38:36;;;;;;;;;5.00;1.75;;;;;15.52;100.00;101100.03;4992432;28;45422;-83
2022/11/01 09:41:16;;;;;;;;;2.00;0.75;;;;;15.64;100.00;101116.09;4973486;28;44872;-83
2022/11/01 09:43:44;;;;;;;;;3.00;0.00;;;;;15.65;100.00;101112.50;4973183;28;45514;-83
2022/11/01 09:46:15;;;;;;;;;2.25;2.00;;;;;15.72;100.00;101117.03;4972763;28;45507;-83
2022/11/01 09:48:43;;;;;;;;;4.75;2.00;;;;;15.78;100.00;101118.81;4972010;28;45447;-83
2022/11/01 09:51:18;;;;;;;;;1.50;0.00;;;;;15.74;100.00;101109.88;4970959;28;45878;-83
2022/11/01 09:53:43;;;;;;;;;1.00;1.00;;;;;15.85;100.00;101125.03;4989458;28;45384;-83
2022/11/01 09:56:33;;;;;;;;;5.75;4.00;;;;;15.93;100.00;101120.56;4972803;28;45520;-83
2022/11/01 09:59:11;;;;;;;;;4.75;3.50;;;;;15.98;100.00;101132.19;4972726;28;47020;-83
2022/11/01 10:01:47;;;;;;;;;0.75;0.75;;;;;15.94;100.00;101122.38;4972453;28;45404;-83
2022/11/01 10:04:37;;;;;;;;;3.25;2.25;;;;;15.95;100.00;101130.38;4989846;28;44819;-83
2022/11/01 10:07:26;;;;;;;;;1.50;1.00;;;;;16.05;100.00;101125.91;4968214;28;45251;-83
2022/11/01 10:10:00;;;;;;;;;3.75;1.75;;;;;16.06;100.00;101133.06;4967671;28;47005;-83
2022/11/01 10:12:41;;;;;;;;;0.00;0.00;;;;;16.11;100.00;101123.19;4968336;28;46018;-83
2022/11/01 10:15:06;;;;;;;;;1.00;1.00;;;;;16.12;100.00;101119.63;4968281;28;44864;-83
2022/11/01 10:17:43;;;;;;;;;3.25;1.75;;;;;16.15;100.00;101119.59;4968724;28;45425;-83
2022/11/01 10:20:11;;;;;;;;;2.00;2.00;;;;;16.17;100.00;101117.81;4968266;28;45420;-83
2022/11/01 10:22:40;;;;;;;;;4.00;4.00;;;;;16.23;100.00;101121.38;4969873;28;45886;-83
2022/11/01 10:25:05;;;;;;;;;1.25;1.00;;;;;16.33;100.00;101129.41;4968159;28;45492;-83
2022/11/01 10:28:12;;;;;;;;;1.50;1.50;;;;;16.39;100.00;101129.38;4973111;28;45476;-84
2022/11/01 10:30:47;;;;;;;;;2.25;2.25;;;;;16.41;100.00;101121.31;4900292;29;46957;-83
2022/11/01 10:33:30;;;;;;;;;2.00;2.00;;;;;16.51;100.00;101131.13;4900705;29;44762;-83
2022/11/01 10:36:01;;;;;;;;;4.00;1.25;;;;;16.44;98.84;101110.59;4916968;29;45465;-82
2022/11/01 10:38:47;;;;;;;;;1.00;1.00;;;;;16.50;99.66;101120.38;4917095;29;44910;-83
2022/11/01 10:41:35;;;;;;;;;1.00;1.00;;;;;16.51;100.00;101112.31;4916080;29;45480;-82
2022/11/01 10:44:10;;;;;;;;;3.00;3.00;;;;;16.54;99.99;101117.69;4887147;29;45363;-83
2022/11/01 10:46:41;;;;;;;;;0.75;0.75;;;;;16.58;98.37;101111.41;4896651;29;45562;-83
2022/11/01 10:49:17;;;;;;;;;2.25;2.00;;;;;16.62;99.48;101112.25;4897373;29;45446;-83
2022/11/01 10:51:44;;;;;;;;;3.00;2.00;;;;;16.66;97.35;101116.72;4880578;29;46935;-84
2022/11/01 10:54:26;;;;;;;;;1.25;1.25;;;;;16.65;97.46;101111.38;4897650;29;44912;-83
2022/11/01 10:56:58;;;;;;;;;1.75;0.00;;;;;16.67;98.23;101101.53;4896308;29;44741;-82
2022/11/01 10:59:36;;;;;;;;;1.50;1.00;;;;;16.75;96.88;101113.13;4897416;29;45423;-83
2022/11/01 11:02:14;;;;;;;;;5.00;1.00;;;;;16.78;98.64;101107.72;4880752;29;46471;-84
2022/11/01 11:04:39;;;;;;;;;2.00;0.75;;;;;16.73;96.61;101102.38;4896485;29;45457;-83
2022/11/01 11:07:14;;;;;;;;;3.00;2.00;;;;;16.77;95.38;101108.63;4943685;28;45815;-83
2022/11/01 11:09:39;;;;;;;;;0.00;0.00;;;;;16.78;96.33;101100.56;4974494;28;44823;-83
2022/11/01 11:12:19;;;;;;;;;4.00;1.00;;;;;16.78;96.01;101105.03;4975998;28;45173;-82
2022/11/01 11:15:00;;;;;;;;;1.50;1.25;;;;;16.86;96.51;101118.44;4974690;28;45292;-83
2022/11/01 11:17:36;;;;;;;;;1.50;1.00;;;;;16.85;96.43;101095.19;4974330;28;45505;-83
2022/11/01 11:20:07;;;;;;;;;1.75;1.75;;;;;16.91;96.83;101096.03;4975131;28;44811;-82
2022/11/01 11:25:36;;;;;;;;;3.00;1.50;;;;;17.06;97.61;101075.34;4914297;29;45316;-83
2022/11/01 11:28:03;;;;;;;;;2.00;2.00;;;;;17.29;95.26;101094.88;4914439;29;44899;-83
2022/11/01 11:30:32;;;;;;;;;1.50;1.50;;;;;17.30;96.89;101096.66;4914686;29;45574;-82
2022/11/01 11:33:00;;;;;;;;;1.00;1.00;;;;;17.40;96.49;101103.72;4913967;29;45493;-84
2022/11/01 11:35:32;;;;;;;;;5.00;2.00;;;;;17.31;94.50;101067.97;4914842;29;44782;-83
2022/11/01 11:38:05;;;;;;;;;4.75;2.00;;;;;17.45;92.67;101089.34;4897551;29;45546;-83
2022/11/01 11:40:41;;;;;;;;;1.75;0.25;;;;;17.49;90.49;101091.09;4914593;29;45489;-84
2022/11/01 11:43:23;;;;;;;;;2.25;2.25;;;;;17.56;87.14;101065.97;4914345;29;45839;-83
2022/11/01 11:46:22;;;;;;;;;2.00;0.25;;;;;17.67;90.60;101084.66;4898858;29;45406;-82
2022/11/01 11:49:06;;;;;;;;;3.00;2.00;;;;;17.67;90.25;101071.22;4913197;29;45378;-83
2022/11/01 11:51:37;;;;;;;;;0.00;0.00;;;;;17.53;89.67;101031.00;4898946;29;45423;-83
2022/11/01 11:54:14;;;;;;;;;1.00;1.00;;;;;17.56;89.47;101050.69;4914555;29;45412;-83
2022/11/01 11:56:39;;;;;;;;;2.00;2.00;;;;;17.59;86.02;101063.22;4898041;29;44833;-83